Time;durP1;ratioP1;P1;durP2;ratioP2;P2;SDS_P1;SDS_P2;PMS_P1;PMS_P2;Temp;Humidity;BMP_temperature;BMP_pressure;BME280_temperature;BME280_humidity;BME280_pressure;Samples;Min_cycle;Max_cycle;Signal;HPM_P1;HPM_P2
2022/01/15 00:01:33;;;;;;;18.67;10.93;;;3.90;99.90;;;;;;5054137;28;20586;-70
2022/01/15 00:03:59;;;;;;;18.10;10.93;;;3.90;99.90;;;;;;5053809;28;20412;-72
2022/01/15 00:06:25;;;;;;;19.23;11.10;;;3.90;99.90;;;;;;5053114;28;20577;-71
2022/01/15 00:08:50;;;;;;;14.60;10.10;;;4.00;99.90;;;;;;5053524;28;20586;-70
2022/01/15 00:11:16;;;;;;;20.67;11.93;;;4.00;99.90;;;;;;5053732;28;20215;-70
2022/01/15 00:13:44;;;;;;;18.13;11.30;;;4.10;99.90;;;;;;5053700;28;20455;-70
2022/01/15 00:16:13;;;;;;;21.63;11.03;;;4.10;99.90;;;;;;5053217;28;20555;-70
2022/01/15 00:21:08;;;;;;;16.60;10.57;;;4.00;99.90;;;;;;5052199;28;20791;-71
2022/01/15 00:23:34;;;;;;;16.63;9.83;;;4.10;99.90;;;;;;5053585;28;20416;-71
2022/01/15 00:25:59;;;;;;;17.53;10.40;;;4.10;99.90;;;;;;5053383;28;20413;-70
2022/01/15 00:28:25;;;;;;;17.40;10.47;;;4.10;99.90;;;;;;5052953;28;20249;-70
2022/01/15 00:30:50;;;;;;;17.90;10.97;;;4.00;99.90;;;;;;5077404;22;20199;-67
2022/01/15 00:33:16;;;;;;;21.83;10.63;;;4.00;99.90;;;;;;5034543;28;20199;-68
2022/01/15 00:35:41;;;;;;;16.90;10.70;;;4.00;99.90;;;;;;5039769;28;20234;-68
2022/01/15 00:38:07;;;;;;;15.37;9.83;;;4.10;99.90;;;;;;5042705;28;20163;-67
2022/01/15 00:40:32;;;;;;;18.67;11.10;;;4.10;99.90;;;;;;5033565;28;20182;-68
2022/01/15 00:42:58;;;;;;;14.73;9.00;;;4.10;99.90;;;;;;5033790;28;20312;-68
2022/01/15 00:45:23;;;;;;;17.33;10.03;;;4.20;99.90;;;;;;5033529;28;20181;-67
2022/01/15 00:47:50;;;;;;;15.77;11.20;;;4.20;99.90;;;;;;5033160;28;20216;-70
2022/01/15 00:50:16;;;;;;;16.17;9.33;;;4.20;99.90;;;;;;5033107;28;20199;-69
2022/01/15 00:52:42;;;;;;;17.30;10.50;;;4.10;99.90;;;;;;5033376;28;20426;-68
2022/01/15 00:55:09;;;;;;;18.70;9.53;;;4.00;99.90;;;;;;5033372;28;20406;-69
2022/01/15 00:57:34;;;;;;;22.33;10.30;;;4.10;99.90;;;;;;5033191;28;20178;-68
2022/01/15 01:00:00;;;;;;;16.23;9.67;;;4.00;99.90;;;;;;5033009;28;20795;-69
2022/01/15 01:02:26;;;;;;;17.10;10.77;;;4.00;99.90;;;;;;5033283;28;20193;-69
2022/01/15 01:04:52;;;;;;;16.47;9.60;;;4.10;99.90;;;;;;5033196;28;20674;-69
2022/01/15 01:07:17;;;;;;;17.27;10.13;;;4.20;99.90;;;;;;5015138;28;20414;-68
2022/01/15 01:12:56;;;;;;;15.87;9.67;;;4.30;99.90;;;;;;5033189;28;20736;-69
2022/01/15 01:23:27;;;;;;;12.10;7.30;;;4.40;99.90;;;;;;5032915;28;20410;-69
2022/01/15 01:25:59;;;;;;;15.80;8.00;;;4.50;99.90;;;;;;5032902;28;20417;-68
2022/01/15 01:28:36;;;;;;;9.87;6.33;;;4.50;99.90;;;;;;5032981;28;20515;-68
2022/01/15 01:31:10;;;;;;;9.07;6.27;;;4.50;99.90;;;;;;5032349;28;20449;-68
2022/01/15 01:33:41;;;;;;;8.67;5.97;;;4.40;99.90;;;;;;5014772;28;20421;-67
2022/01/15 01:36:15;;;;;;;9.67;6.20;;;4.20;99.90;;;;;;5014779;28;20787;-68
2022/01/15 01:38:52;;;;;;;10.13;6.00;;;4.20;99.90;;;;;;5032514;28;20406;-68
2022/01/15 01:41:20;;;;;;;7.63;6.20;;;4.20;99.90;;;;;;5032668;28;20949;-68
2022/01/15 01:43:51;;;;;;;10.33;5.70;;;4.20;99.90;;;;;;5032370;28;20406;-68
2022/01/15 01:48:53;;;;;;;6.87;5.10;;;4.20;99.90;;;;;;5032462;28;20498;-67
2022/01/15 01:51:31;;;;;;;6.83;4.53;;;4.20;99.90;;;;;;5032019;28;20444;-68
2022/01/15 01:54:00;;;;;;;9.40;5.57;;;4.20;99.90;;;;;;5014672;28;20421;-68
2022/01/15 01:56:26;;;;;;;8.50;5.90;;;4.30;99.90;;;;;;5031937;28;20408;-68
2022/01/15 01:58:51;;;;;;;9.00;6.03;;;4.20;99.90;;;;;;5032227;28;20407;-68
2022/01/15 02:01:17;;;;;;;8.43;5.87;;;4.20;99.90;;;;;;5032156;28;20183;-66
2022/01/15 02:03:43;;;;;;;8.90;5.90;;;4.20;99.90;;;;;;5032216;28;20169;-67
2022/01/15 02:06:08;;;;;;;8.73;5.60;;;4.20;99.90;;;;;;5031633;28;20249;-67
2022/01/15 02:08:36;;;;;;;8.40;5.60;;;4.20;99.90;;;;;;5032978;28;20214;-67
2022/01/15 02:11:04;;;;;;;8.47;5.80;;;4.20;99.90;;;;;;5031929;28;20195;-67
2022/01/15 02:13:30;;;;;;;9.27;6.70;;;4.20;99.90;;;;;;5031698;28;20406;-68
2022/01/15 02:16:00;;;;;;;6.77;4.87;;;4.20;99.90;;;;;;5031432;28;20441;-68
2022/01/15 02:18:26;;;;;;;7.13;5.10;;;4.20;99.90;;;;;;5031604;28;20911;-68
2022/01/15 02:23:35;;;;;;;7.37;5.00;;;4.30;99.90;;;;;;5032070;28;20408;-67
2022/01/15 02:26:07;;;;;;;8.67;5.73;;;4.30;99.90;;;;;;5013974;28;20414;-67
2022/01/15 02:28:39;;;;;;;7.87;5.90;;;4.30;99.90;;;;;;5031764;28;20406;-68
2022/01/15 02:31:10;;;;;;;9.13;6.43;;;4.30;99.90;;;;;;5032370;28;20943;-67
2022/01/15 02:33:38;;;;;;;8.90;6.63;;;4.30;99.90;;;;;;5014183;28;21061;-67
2022/01/15 02:36:09;;;;;;;8.63;6.60;;;4.30;99.90;;;;;;5039154;28;20425;-67
2022/01/15 02:38:36;;;;;;;9.87;7.13;;;4.20;99.90;;;;;;5033256;28;20478;-69
2022/01/15 02:41:02;;;;;;;9.70;6.10;;;4.20;99.90;;;;;;5015225;28;20414;-67
2022/01/15 02:43:32;;;;;;;8.57;6.30;;;4.20;99.90;;;;;;4994607;28;20930;-67
2022/01/15 02:46:00;;;;;;;10.07;7.00;;;4.20;99.90;;;;;;5011924;28;20175;-67
2022/01/15 02:48:28;;;;;;;8.20;6.10;;;4.20;99.90;;;;;;5011976;28;20406;-67
2022/01/15 02:50:55;;;;;;;10.40;6.90;;;4.20;99.90;;;;;;5012053;28;20450;-67
2022/01/15 02:53:21;;;;;;;10.73;7.03;;;4.10;99.90;;;;;;5011553;28;20406;-67
2022/01/15 02:55:49;;;;;;;8.60;6.03;;;4.10;99.90;;;;;;5011702;28;20412;-67
2022/01/15 02:58:16;;;;;;;9.30;6.40;;;4.10;99.90;;;;;;5011904;28;20417;-68
2022/01/15 03:00:42;;;;;;;8.83;7.00;;;4.10;99.90;;;;;;5011709;28;20418;-67
2022/01/15 03:03:08;;;;;;;8.63;6.93;;;4.10;99.90;;;;;;5011432;28;20438;-67
2022/01/15 03:05:33;;;;;;;12.30;7.00;;;4.10;99.90;;;;;;5011267;28;20173;-67
2022/01/15 03:07:59;;;;;;;8.57;6.37;;;3.90;99.90;;;;;;5011948;28;20172;-67
2022/01/15 03:10:25;;;;;;;9.23;6.60;;;4.00;99.90;;;;;;5011549;28;20211;-67
2022/01/15 03:12:53;;;;;;;10.50;6.47;;;4.00;99.90;;;;;;5012048;28;20187;-68
2022/01/15 03:15:19;;;;;;;10.40;6.77;;;3.90;99.90;;;;;;5012497;28;20164;-67
2022/01/15 03:17:46;;;;;;;8.43;5.90;;;3.90;99.90;;;;;;5012023;28;20410;-68
2022/01/15 03:20:13;;;;;;;11.97;6.40;;;3.90;99.90;;;;;;5010867;28;20918;-67
2022/01/15 03:22:39;;;;;;;7.43;5.93;;;4.00;99.90;;;;;;5011835;28;20854;-68
2022/01/15 03:25:05;;;;;;;10.57;7.40;;;4.00;99.90;;;;;;5015545;28;20505;-68
2022/01/15 03:27:31;;;;;;;9.50;7.47;;;4.00;99.90;;;;;;5014795;28;20180;-68
2022/01/15 03:29:56;;;;;;;8.83;6.40;;;4.00;99.90;;;;;;5015319;28;20464;-68
2022/01/15 03:32:22;;;;;;;10.20;6.70;;;4.00;99.90;;;;;;5014970;28;20625;-67
2022/01/15 03:34:48;;;;;;;8.23;5.80;;;4.00;99.90;;;;;;5015478;28;20535;-68
2022/01/15 03:37:14;;;;;;;10.73;6.40;;;4.00;99.90;;;;;;5014909;28;20253;-69
2022/01/15 03:39:40;;;;;;;10.20;6.47;;;4.00;99.90;;;;;;5015244;28;20442;-68
2022/01/15 03:42:12;;;;;;;8.17;5.90;;;4.10;99.90;;;;;;5014911;28;20975;-68
2022/01/15 03:44:45;;;;;;;9.80;6.37;;;3.90;99.90;;;;;;5015160;28;20621;-68
2022/01/15 03:47:11;;;;;;;8.67;5.93;;;3.90;99.90;;;;;;5014813;28;20387;-68
2022/01/15 03:49:38;;;;;;;9.63;6.53;;;4.00;99.90;;;;;;5014662;28;20853;-68
2022/01/15 03:52:04;;;;;;;9.80;5.70;;;4.00;99.90;;;;;;5014804;28;20513;-68
2022/01/15 03:54:30;;;;;;;9.83;6.37;;;4.10;99.90;;;;;;5014441;28;20402;-68
2022/01/15 03:56:56;;;;;;;10.30;6.23;;;4.10;99.90;;;;;;5014539;28;20410;-68
2022/01/15 03:59:22;;;;;;;10.20;6.30;;;4.10;99.90;;;;;;5014332;28;20171;-68
2022/01/15 04:01:47;;;;;;;8.53;5.70;;;4.10;99.90;;;;;;5014611;28;20210;-68
2022/01/15 04:04:13;;;;;;;8.10;5.90;;;4.10;99.90;;;;;;5014188;28;20325;-68
2022/01/15 04:06:38;;;;;;;9.03;5.73;;;4.00;99.90;;;;;;5014284;28;20250;-68
2022/01/15 04:09:04;;;;;;;7.37;5.37;;;4.10;99.90;;;;;;5014663;28;20597;-67
2022/01/15 04:11:30;;;;;;;8.63;5.47;;;4.10;99.90;;;;;;5014255;28;20202;-68
2022/01/15 04:13:55;;;;;;;7.90;5.50;;;4.10;99.90;;;;;;5014219;28;20545;-68
2022/01/15 04:16:21;;;;;;;6.87;4.87;;;4.00;99.90;;;;;;5013914;28;20233;-68
2022/01/15 04:18:46;;;;;;;7.50;5.70;;;3.90;99.90;;;;;;5014398;28;20625;-69
2022/01/15 04:21:13;;;;;;;8.80;6.10;;;3.90;99.90;;;;;;5012479;28;20247;-68
2022/01/15 04:23:39;;;;;;;8.83;6.50;;;3.90;99.90;;;;;;5014264;28;20178;-68
2022/01/15 04:26:05;;;;;;;8.73;5.73;;;3.90;99.90;;;;;;5013633;28;20498;-68
2022/01/15 04:28:34;;;;;;;7.70;5.60;;;4.00;99.90;;;;;;5014108;28;20641;-67
2022/01/15 04:31:05;;;;;;;6.60;5.03;;;4.00;99.90;;;;;;5009527;28;20470;-68
2022/01/15 04:33:39;;;;;;;7.20;5.27;;;3.70;99.90;;;;;;5010881;28;20426;-68
2022/01/15 04:36:06;;;;;;;6.50;4.70;;;3.50;99.90;;;;;;5032659;28;20821;-68
2022/01/15 04:38:36;;;;;;;8.70;6.27;;;3.50;99.90;;;;;;5038391;28;20409;-67
2022/01/15 04:41:02;;;;;;;8.33;5.27;;;3.50;99.90;;;;;;5022399;28;20427;-68
2022/01/15 04:43:27;;;;;;;6.97;5.70;;;3.50;99.90;;;;;;5010791;28;20437;-69
2022/01/15 04:45:53;;;;;;;7.13;5.57;;;3.40;99.90;;;;;;5010174;28;20429;-69
2022/01/15 04:48:19;;;;;;;9.43;6.43;;;3.40;99.90;;;;;;5011336;28;20191;-68
2022/01/15 04:50:45;;;;;;;9.23;6.43;;;3.40;99.90;;;;;;5011105;28;20929;-68
2022/01/15 04:53:10;;;;;;;10.30;6.57;;;3.40;99.90;;;;;;5010895;28;20179;-68
2022/01/15 04:55:37;;;;;;;9.17;6.57;;;3.40;99.90;;;;;;5010226;28;20180;-68
2022/01/15 04:58:04;;;;;;;10.50;6.70;;;3.40;99.90;;;;;;5009758;28;20557;-67
2022/01/15 05:00:30;;;;;;;9.33;6.07;;;3.50;99.90;;;;;;5010177;28;20434;-67
2022/01/15 05:02:57;;;;;;;7.60;6.40;;;3.60;99.90;;;;;;5010148;28;20463;-67
2022/01/15 05:05:23;;;;;;;10.63;7.33;;;3.70;99.90;;;;;;4992533;28;20434;-66
2022/01/15 05:07:51;;;;;;;7.80;6.20;;;3.70;99.90;;;;;;5010021;28;20414;-67
2022/01/15 05:10:19;;;;;;;8.60;7.00;;;3.80;99.90;;;;;;5010311;28;20899;-66
2022/01/15 05:12:48;;;;;;;8.30;7.10;;;3.80;99.90;;;;;;5010119;28;20450;-67
2022/01/15 05:15:16;;;;;;;9.60;6.83;;;3.90;99.90;;;;;;5009998;28;20426;-66
2022/01/15 05:17:42;;;;;;;12.63;8.23;;;3.90;99.90;;;;;;5014057;28;20910;-66
2022/01/15 05:20:10;;;;;;;10.77;7.97;;;3.90;99.90;;;;;;5027090;28;20464;-69
2022/01/15 05:22:35;;;;;;;9.00;7.50;;;4.00;99.90;;;;;;5027158;28;20504;-70
2022/01/15 05:25:07;;;;;;;11.40;7.83;;;4.00;99.90;;;;;;5031404;28;20489;-67
2022/01/15 05:27:35;;;;;;;11.27;8.47;;;3.90;99.90;;;;;;5030312;28;20256;-67
2022/01/15 05:30:00;;;;;;;10.53;8.17;;;3.90;99.90;;;;;;5008888;28;20471;-67
2022/01/15 05:32:26;;;;;;;10.50;7.83;;;3.80;99.90;;;;;;5010826;28;20524;-68
2022/01/15 05:34:51;;;;;;;10.87;8.07;;;3.70;99.90;;;;;;5011265;28;20252;-68
2022/01/15 05:37:17;;;;;;;12.50;9.17;;;3.60;99.90;;;;;;5012623;28;20245;-67
2022/01/15 05:39:42;;;;;;;11.67;8.40;;;3.40;99.90;;;;;;5031928;28;20194;-68
2022/01/15 05:42:08;;;;;;;13.73;9.63;;;3.50;99.90;;;;;;5018603;28;20480;-69
2022/01/15 05:44:35;;;;;;;13.80;8.50;;;3.50;99.90;;;;;;5016865;28;20197;-68
2022/01/15 05:47:01;;;;;;;14.77;9.63;;;3.60;99.90;;;;;;5033114;28;20420;-68
2022/01/15 05:49:26;;;;;;;13.73;8.70;;;3.70;99.90;;;;;;5030288;28;20465;-68
2022/01/15 05:51:52;;;;;;;13.57;9.70;;;3.70;99.90;;;;;;5029133;28;20503;-68
2022/01/15 05:54:18;;;;;;;12.90;8.73;;;3.70;99.90;;;;;;5029650;28;20181;-67
2022/01/15 05:56:43;;;;;;;13.90;8.40;;;3.70;99.90;;;;;;5028961;28;20938;-68
2022/01/15 05:59:09;;;;;;;12.27;8.10;;;3.70;99.90;;;;;;5028712;28;20417;-67
2022/01/15 06:01:36;;;;;;;11.63;7.83;;;3.60;99.90;;;;;;5028982;28;20202;-68
2022/01/15 06:04:02;;;;;;;11.90;7.83;;;3.50;99.90;;;;;;5029376;28;20198;-68
2022/01/15 06:06:28;;;;;;;12.13;8.30;;;3.50;99.90;;;;;;5028691;28;20441;-68
2022/01/15 06:08:54;;;;;;;12.33;8.70;;;3.50;99.90;;;;;;5029080;28;20444;-68
2022/01/15 06:11:20;;;;;;;13.67;7.77;;;3.60;99.90;;;;;;5028770;28;20465;-67
2022/01/15 06:13:47;;;;;;;12.40;8.77;;;3.70;99.90;;;;;;5028694;28;20649;-68
2022/01/15 06:16:13;;;;;;;11.63;8.10;;;3.70;99.90;;;;;;5029092;28;20405;-68
2022/01/15 06:18:39;;;;;;;11.30;7.17;;;3.80;99.90;;;;;;5029024;28;20433;-68
2022/01/15 06:21:04;;;;;;;11.97;8.33;;;3.90;99.90;;;;;;5028408;28;20947;-68
2022/01/15 06:23:30;;;;;;;12.20;8.00;;;3.90;99.90;;;;;;5029515;28;20182;-68
2022/01/15 06:25:56;;;;;;;11.47;7.47;;;3.90;99.90;;;;;;5028694;28;20189;-68
2022/01/15 06:28:22;;;;;;;12.20;8.23;;;3.90;99.90;;;;;;5028181;28;20205;-67
2022/01/15 06:30:47;;;;;;;10.77;7.40;;;3.90;99.90;;;;;;5030840;28;20206;-68
2022/01/15 06:33:13;;;;;;;11.43;8.03;;;3.90;99.90;;;;;;5032367;28;20417;-68
2022/01/15 06:35:39;;;;;;;9.50;7.40;;;3.90;99.90;;;;;;5059443;22;20222;-68
2022/01/15 06:38:04;;;;;;;13.40;8.77;;;4.00;99.90;;;;;;5031520;28;20179;-69
2022/01/15 06:40:31;;;;;;;10.37;7.10;;;4.00;99.90;;;;;;5031157;28;20183;-70
2022/01/15 06:42:57;;;;;;;11.50;7.53;;;4.00;99.90;;;;;;5031456;28;20182;-70
2022/01/15 06:45:23;;;;;;;10.07;7.77;;;4.00;99.90;;;;;;5031455;28;20426;-69
2022/01/15 06:47:48;;;;;;;14.53;8.50;;;4.00;99.90;;;;;;5031385;28;20405;-70
2022/01/15 06:50:14;;;;;;;12.23;7.83;;;3.90;99.90;;;;;;5031427;28;20663;-69
2022/01/15 06:52:39;;;;;;;12.70;7.80;;;3.90;99.90;;;;;;5031633;28;20173;-69
2022/01/15 06:55:07;;;;;;;13.30;8.57;;;4.00;99.90;;;;;;5031636;28;20656;-69
2022/01/15 06:57:33;;;;;;;13.43;8.73;;;3.90;99.90;;;;;;5013598;28;20884;-69
2022/01/15 06:59:59;;;;;;;11.27;7.93;;;3.90;99.90;;;;;;5035882;28;20437;-68
2022/01/15 07:02:25;;;;;;;11.00;7.40;;;3.90;99.90;;;;;;5035650;28;20309;-69
2022/01/15 07:04:50;;;;;;;12.60;9.20;;;3.70;99.90;;;;;;5035507;28;20202;-70
2022/01/15 07:07:16;;;;;;;12.63;8.63;;;3.60;99.90;;;;;;5034858;28;20175;-69
2022/01/15 07:09:41;;;;;;;12.03;8.23;;;3.60;99.90;;;;;;5035278;28;20197;-69
2022/01/15 07:12:07;;;;;;;11.90;8.20;;;3.60;99.90;;;;;;5035275;28;20178;-69
2022/01/15 07:14:33;;;;;;;10.60;8.20;;;3.70;99.90;;;;;;5034852;28;20187;-69
2022/01/15 07:16:58;;;;;;;11.80;8.33;;;3.70;99.90;;;;;;5034593;28;20455;-69
2022/01/15 07:19:24;;;;;;;12.40;8.30;;;3.70;99.90;;;;;;5039774;28;20195;-69
2022/01/15 07:21:49;;;;;;;12.33;7.80;;;3.70;99.90;;;;;;5041764;28;20686;-70
2022/01/15 07:24:16;;;;;;;11.20;8.17;;;3.80;99.90;;;;;;5025199;28;20196;-70
2022/01/15 07:26:42;;;;;;;10.43;7.67;;;3.70;99.90;;;;;;5015105;28;20168;-69
2022/01/15 07:29:14;;;;;;;9.20;6.80;;;3.80;99.90;;;;;;5014532;28;20406;-70
2022/01/15 07:31:41;;;;;;;11.87;7.40;;;3.80;99.90;;;;;;5014927;28;20414;-70
2022/01/15 07:34:07;;;;;;;8.57;6.70;;;3.80;99.90;;;;;;5014809;28;20459;-69
2022/01/15 07:36:32;;;;;;;10.33;7.53;;;3.80;99.90;;;;;;4996810;28;20414;-70
2022/01/15 07:38:58;;;;;;;10.00;7.00;;;3.80;99.90;;;;;;5043347;28;20456;-70
2022/01/15 07:41:23;;;;;;;11.30;7.17;;;3.70;99.90;;;;;;5044562;28;20210;-70
2022/01/15 07:43:49;;;;;;;10.57;7.53;;;3.70;99.90;;;;;;5041970;28;20182;-69
2022/01/15 07:46:14;;;;;;;10.40;7.33;;;3.80;99.90;;;;;;5046622;28;20185;-69
2022/01/15 07:48:40;;;;;;;10.10;7.13;;;3.80;99.90;;;;;;5048627;28;20606;-70
2022/01/15 07:51:07;;;;;;;9.60;6.60;;;3.90;99.90;;;;;;5046848;28;20198;-70
2022/01/15 07:53:33;;;;;;;8.50;6.53;;;3.90;99.90;;;;;;5049766;28;20170;-70
2022/01/15 07:55:58;;;;;;;10.23;6.80;;;3.90;99.90;;;;;;5044962;28;20441;-70
2022/01/15 07:58:24;;;;;;;10.10;6.97;;;3.90;99.90;;;;;;5022903;28;21059;-69
2022/01/15 08:00:50;;;;;;;8.60;7.23;;;4.00;99.90;;;;;;5014202;28;20530;-69
2022/01/15 08:03:15;;;;;;;11.07;8.77;;;4.10;99.90;;;;;;5014192;28;20659;-69
2022/01/15 08:05:41;;;;;;;11.47;7.80;;;4.10;99.90;;;;;;5013535;28;20657;-69
2022/01/15 08:08:07;;;;;;;13.20;8.17;;;4.10;99.90;;;;;;5014080;28;20175;-70
2022/01/15 08:10:32;;;;;;;9.40;7.60;;;4.10;99.90;;;;;;5037487;28;20309;-69
2022/01/15 08:12:58;;;;;;;11.00;8.27;;;4.10;99.90;;;;;;5045123;28;20197;-70
2022/01/15 08:15:25;;;;;;;10.10;7.63;;;4.20;99.90;;;;;;5022661;28;20267;-69
2022/01/15 08:17:51;;;;;;;9.87;7.10;;;4.20;99.90;;;;;;5013714;28;20294;-70
2022/01/15 08:20:17;;;;;;;11.23;7.60;;;4.20;99.90;;;;;;5009388;28;20484;-70
2022/01/15 08:22:44;;;;;;;11.93;7.67;;;4.20;99.90;;;;;;5028432;28;20422;-70
2022/01/15 08:25:12;;;;;;;11.00;7.87;;;4.00;99.90;;;;;;5029042;28;21200;-70
2022/01/15 08:27:37;;;;;;;10.90;7.90;;;3.90;99.90;;;;;;5028485;28;21225;-70
2022/01/15 08:30:05;;;;;;;8.70;6.93;;;3.80;99.90;;;;;;5028719;28;20533;-70
2022/01/15 08:32:30;;;;;;;8.80;7.10;;;3.60;99.90;;;;;;5028600;28;20162;-70
2022/01/15 08:34:56;;;;;;;9.70;7.47;;;3.60;99.90;;;;;;5028293;28;20457;-69
2022/01/15 08:37:21;;;;;;;7.50;6.20;;;3.70;99.90;;;;;;5029317;28;20205;-70
2022/01/15 08:39:47;;;;;;;7.93;6.10;;;3.80;99.90;;;;;;5030174;28;20228;-70
2022/01/15 08:42:12;;;;;;;8.23;6.40;;;3.80;99.90;;;;;;5030211;28;20271;-69
2022/01/15 08:44:42;;;;;;;7.33;5.40;;;3.90;99.90;;;;;;5030392;28;20230;-71
2022/01/15 08:47:08;;;;;;;8.73;6.50;;;4.00;99.90;;;;;;5030043;28;20188;-70
2022/01/15 08:49:34;;;;;;;8.77;6.57;;;4.10;99.90;;;;;;5029858;28;20583;-69
2022/01/15 08:51:59;;;;;;;9.00;6.27;;;4.20;99.90;;;;;;5030341;28;20850;-70
2022/01/15 08:54:25;;;;;;;9.30;6.67;;;4.20;99.90;;;;;;5030167;28;20445;-70
2022/01/15 08:56:50;;;;;;;5.80;5.17;;;4.30;99.90;;;;;;5029544;28;20185;-69
2022/01/15 08:59:16;;;;;;;7.77;6.20;;;4.30;99.90;;;;;;5029893;28;20290;-70
2022/01/15 09:01:42;;;;;;;7.20;5.63;;;4.30;99.90;;;;;;5030492;28;20556;-70
2022/01/15 09:04:07;;;;;;;7.73;5.90;;;4.30;99.90;;;;;;5036571;28;20209;-70
2022/01/15 09:06:33;;;;;;;8.80;6.20;;;4.30;99.90;;;;;;5033461;28;20186;-70
2022/01/15 09:08:58;;;;;;;7.93;6.17;;;4.40;99.90;;;;;;5014333;28;20211;-70
2022/01/15 09:11:24;;;;;;;8.07;5.50;;;4.50;99.90;;;;;;5009951;28;20290;-70
2022/01/15 09:13:49;;;;;;;9.63;6.47;;;4.50;99.90;;;;;;5009801;28;20589;-70
2022/01/15 09:16:15;;;;;;;7.97;5.67;;;4.50;99.90;;;;;;5038612;28;20183;-71
2022/01/15 09:18:40;;;;;;;6.00;5.03;;;4.50;99.90;;;;;;5045923;28;20190;-71
2022/01/15 09:21:06;;;;;;;8.10;5.37;;;4.50;99.90;;;;;;5041722;28;20195;-69
2022/01/15 09:23:32;;;;;;;6.70;5.80;;;4.60;99.90;;;;;;5041113;28;20187;-70
2022/01/15 09:25:59;;;;;;;6.00;4.60;;;4.60;99.90;;;;;;5033170;28;20199;-69
2022/01/15 09:31:13;;;;;;;6.60;5.47;;;4.60;99.90;;;;;;5009706;28;20450;-70
2022/01/15 09:33:39;;;;;;;8.27;6.47;;;4.80;99.90;;;;;;5010243;28;20404;-70
2022/01/15 09:36:05;;;;;;;7.30;6.23;;;4.80;99.90;;;;;;5008915;28;20450;-70
2022/01/15 09:38:31;;;;;;;9.60;6.20;;;4.90;99.90;;;;;;5009203;28;20179;-70
2022/01/15 09:40:57;;;;;;;8.00;6.00;;;4.90;99.90;;;;;;5009519;28;20420;-70
2022/01/15 09:43:23;;;;;;;9.93;6.77;;;5.00;99.90;;;;;;5009331;28;20426;-69
2022/01/15 09:45:48;;;;;;;7.40;5.87;;;5.10;99.90;;;;;;5014523;28;20641;-69
2022/01/15 09:48:15;;;;;;;7.00;5.90;;;5.10;99.90;;;;;;5015337;28;20472;-70
2022/01/15 09:50:44;;;;;;;7.10;6.30;;;5.20;99.90;;;;;;5024754;28;20190;-72
2022/01/15 09:53:11;;;;;;;6.23;5.07;;;5.20;99.90;;;;;;5027833;28;20428;-70
2022/01/15 09:55:37;;;;;;;6.60;5.87;;;5.20;99.90;;;;;;5028173;28;20433;-70
2022/01/15 09:58:03;;;;;;;7.30;6.40;;;5.20;99.90;;;;;;5020164;28;20438;-70
2022/01/15 10:00:30;;;;;;;9.50;6.30;;;5.20;99.90;;;;;;5012174;28;20418;-70
2022/01/15 10:02:56;;;;;;;8.73;6.07;;;5.20;99.90;;;;;;5019665;28;20528;-71
2022/01/15 10:05:22;;;;;;;5.23;4.73;;;5.30;99.90;;;;;;5027136;28;20521;-68
2022/01/15 10:07:56;;;;;;;5.83;5.20;;;5.30;99.90;;;;;;4996902;28;20439;-70
2022/01/15 10:10:23;;;;;;;5.50;4.57;;;5.20;99.90;;;;;;5020269;28;20463;-70
2022/01/15 10:12:49;;;;;;;5.43;4.67;;;5.30;99.90;;;;;;5028552;28;20418;-70
2022/01/15 10:15:16;;;;;;;5.90;4.67;;;5.20;99.90;;;;;;5035118;28;20445;-69
2022/01/15 10:17:43;;;;;;;5.60;4.67;;;5.20;99.90;;;;;;5048562;28;20774;-71
2022/01/15 10:20:14;;;;;;;5.37;4.50;;;5.20;99.90;;;;;;5035232;28;20476;-71
2022/01/15 10:22:42;;;;;;;6.50;5.10;;;5.30;99.90;;;;;;5010809;28;20425;-70
2022/01/15 10:25:11;;;;;;;6.03;5.30;;;5.30;99.90;;;;;;5028607;28;20499;-70
2022/01/15 10:27:40;;;;;;;7.37;5.00;;;5.30;99.90;;;;;;5028067;28;20424;-71
2022/01/15 10:30:12;;;;;;;6.90;4.97;;;5.40;99.90;;;;;;5028040;28;20525;-72
2022/01/15 10:32:41;;;;;;;7.13;4.90;;;5.50;99.90;;;;;;5028568;28;21008;-71
2022/01/15 10:35:15;;;;;;;6.87;5.40;;;5.50;99.90;;;;;;5027978;28;20555;-71
2022/01/15 10:37:58;;;;;;;5.40;4.63;;;5.60;99.90;;;;;;5027864;28;20428;-71
2022/01/15 10:40:27;;;;;;;6.03;5.10;;;5.60;99.90;;;;;;5028167;28;20483;-69
2022/01/15 10:42:58;;;;;;;6.30;5.00;;;5.40;99.90;;;;;;5027769;28;20472;-70
2022/01/15 10:45:31;;;;;;;6.67;5.00;;;5.20;99.90;;;;;;5028227;28;20529;-70
2022/01/15 10:47:58;;;;;;;5.60;4.40;;;5.20;99.90;;;;;;5028313;28;20417;-70
2022/01/15 10:50:35;;;;;;;5.07;4.47;;;5.10;99.90;;;;;;5028069;28;20448;-70
2022/01/15 10:53:10;;;;;;;6.70;5.17;;;5.00;99.90;;;;;;5025222;28;20441;-71
2022/01/15 10:55:37;;;;;;;5.23;4.70;;;4.90;99.90;;;;;;5008235;28;20439;-70
2022/01/15 10:58:11;;;;;;;5.47;4.30;;;5.00;99.90;;;;;;5007863;28;20433;-70
2022/01/15 11:00:37;;;;;;;7.40;5.40;;;5.10;99.90;;;;;;5007079;28;20427;-71
2022/01/15 11:03:10;;;;;;;7.07;5.13;;;5.30;99.90;;;;;;4993737;28;20448;-70
2022/01/15 11:05:42;;;;;;;6.67;4.83;;;5.40;99.90;;;;;;5025142;28;20214;-70
2022/01/15 11:08:17;;;;;;;6.23;4.80;;;5.60;99.90;;;;;;5025474;28;20419;-70
2022/01/15 11:10:50;;;;;;;4.93;4.43;;;5.70;99.90;;;;;;5025367;28;20445;-70
2022/01/15 11:13:22;;;;;;;8.37;4.90;;;5.80;99.90;;;;;;5023017;28;20470;-71
2022/01/15 11:15:50;;;;;;;6.93;4.60;;;5.90;99.90;;;;;;5036565;28;20475;-70
2022/01/15 11:18:21;;;;;;;5.67;4.80;;;6.00;99.90;;;;;;5026181;28;20467;-70
2022/01/15 11:20:49;;;;;;;6.77;5.53;;;6.10;99.90;;;;;;5026679;28;20544;-70
2022/01/15 11:23:16;;;;;;;5.93;5.07;;;6.10;99.90;;;;;;5026859;28;21125;-70
2022/01/15 11:25:44;;;;;;;5.57;4.90;;;6.10;99.90;;;;;;5020015;28;20517;-69
2022/01/15 11:28:10;;;;;;;5.97;4.90;;;6.20;99.90;;;;;;5025901;28;20501;-71
2022/01/15 11:30:36;;;;;;;6.90;5.40;;;6.20;99.90;;;;;;5027108;28;20615;-70
2022/01/15 11:33:02;;;;;;;5.17;4.63;;;6.20;99.90;;;;;;5026757;28;20548;-70
2022/01/15 11:35:44;;;;;;;7.10;5.50;;;6.20;99.90;;;;;;5026993;28;20793;-69
2022/01/15 11:38:10;;;;;;;6.57;5.70;;;6.30;99.90;;;;;;5027304;28;20445;-69
2022/01/15 11:40:43;;;;;;;7.63;5.67;;;6.30;99.90;;;;;;5027841;28;20437;-69
2022/01/15 11:43:28;;;;;;;7.23;5.60;;;6.40;99.90;;;;;;5026423;28;20500;-69
2022/01/15 11:45:56;;;;;;;7.73;6.60;;;6.40;99.90;;;;;;5010954;28;20439;-70
2022/01/15 11:48:27;;;;;;;8.60;6.00;;;6.50;99.90;;;;;;5030298;28;20548;-69
2022/01/15 11:51:15;;;;;;;8.27;6.67;;;6.50;99.90;;;;;;5012648;28;20499;-70
2022/01/15 11:53:48;;;;;;;8.40;6.40;;;6.60;99.90;;;;;;5025004;28;20492;-71
2022/01/15 11:56:19;;;;;;;8.50;6.33;;;6.50;99.90;;;;;;5038854;28;20528;-70
2022/01/15 11:58:45;;;;;;;10.07;6.50;;;6.60;99.90;;;;;;5034188;28;20496;-70
2022/01/15 12:01:41;;;;;;;9.90;7.53;;;6.60;99.90;;;;;;5013724;28;20453;-70
2022/01/15 12:04:33;;;;;;;8.90;6.50;;;6.60;99.90;;;;;;5026896;28;20445;-70
2022/01/15 12:07:01;;;;;;;8.13;6.33;;;6.60;99.90;;;;;;5024350;28;20428;-69
2022/01/15 12:09:41;;;;;;;8.10;6.80;;;6.60;99.90;;;;;;5030560;28;20425;-70
2022/01/15 12:12:29;;;;;;;8.53;6.93;;;6.70;99.90;;;;;;5030509;28;20418;-69
2022/01/15 12:15:04;;;;;;;11.77;7.90;;;6.80;99.90;;;;;;5034306;28;20820;-70
2022/01/15 12:17:40;;;;;;;9.50;7.17;;;6.60;99.90;;;;;;5046726;28;20412;-70
2022/01/15 12:20:07;;;;;;;9.83;7.13;;;6.40;99.90;;;;;;5029589;28;21152;-69
2022/01/15 12:22:36;;;;;;;11.03;7.60;;;6.30;99.90;;;;;;5030110;28;20421;-70
2022/01/15 12:25:04;;;;;;;9.30;7.00;;;6.30;99.90;;;;;;5029563;28;20483;-70
2022/01/15 12:27:32;;;;;;;5.80;4.70;;;6.40;99.90;;;;;;5030088;28;20454;-70
2022/01/15 12:30:07;;;;;;;6.77;4.77;;;6.50;99.90;;;;;;5029496;28;20476;-70
2022/01/15 12:32:38;;;;;;;6.73;4.83;;;6.50;99.90;;;;;;5029698;28;20416;-70
2022/01/15 12:35:04;;;;;;;5.53;5.03;;;6.50;99.90;;;;;;5029719;28;20491;-69
2022/01/15 12:37:30;;;;;;;5.73;4.70;;;6.50;99.90;;;;;;5029833;28;20841;-70
2022/01/15 12:39:56;;;;;;;5.33;4.40;;;6.60;99.90;;;;;;5029512;28;20413;-69
2022/01/15 12:42:30;;;;;;;6.20;5.60;;;6.60;99.90;;;;;;5029773;28;20183;-69
2022/01/15 12:44:56;;;;;;;5.10;4.60;;;6.60;99.90;;;;;;5029179;28;20445;-69
2022/01/15 12:47:22;;;;;;;5.87;5.00;;;6.60;99.90;;;;;;5029081;28;20552;-70
2022/01/15 12:49:52;;;;;;;5.90;4.77;;;6.60;99.90;;;;;;5029624;28;20472;-70
2022/01/15 12:52:27;;;;;;;5.30;4.80;;;6.60;99.90;;;;;;5029441;28;20453;-70
2022/01/15 12:55:00;;;;;;;6.27;5.47;;;6.70;99.90;;;;;;5011134;28;20442;-70
2022/01/15 12:57:45;;;;;;;6.70;4.70;;;6.60;99.90;;;;;;5009151;28;20425;-70
2022/01/15 13:00:23;;;;;;;5.70;4.20;;;6.70;99.90;;;;;;5027800;28;20804;-70
2022/01/15 13:02:54;;;;;;;4.83;4.33;;;6.70;99.90;;;;;;5029111;28;20413;-70
2022/01/15 13:05:19;;;;;;;5.03;4.33;;;6.70;99.90;;;;;;5029632;28;20482;-71
2022/01/15 13:07:54;;;;;;;4.53;4.13;;;6.70;99.90;;;;;;5028361;28;20429;-70
2022/01/15 13:10:47;;;;;;;4.90;4.43;;;6.80;99.90;;;;;;5034778;28;20212;-71
2022/01/15 13:13:18;;;;;;;5.60;4.73;;;6.80;99.90;;;;;;5025478;28;20460;-70
2022/01/15 13:15:44;;;;;;;4.67;4.20;;;6.80;99.90;;;;;;5029401;28;20444;-70
2022/01/15 13:18:15;;;;;;;5.50;4.70;;;6.80;99.90;;;;;;5048791;28;20874;-70